Time;durP1;ratioP1;P1;durP2;ratioP2;P2;SDS_P1;SDS_P2;PMS_P1;PMS_P2;Temp;Humidity;BMP_temperature;BMP_pressure;BME280_temperature;BME280_humidity;BME280_pressure;Samples;Min_cycle;Max_cycle;Signal;HPM_P1;HPM_P2
2021/03/27 00:00:13;;;;;;;17.17;10.52;;;17.90;51.60;;;;;;4896085;29;20186;-80
2021/03/27 00:02:41;;;;;;;15.77;10.55;;;17.90;51.60;;;;;;4856138;29;20300;-79
2021/03/27 00:05:13;;;;;;;14.95;10.40;;;17.90;51.70;;;;;;4843854;29;20181;-80
2021/03/27 00:08:01;;;;;;;18.20;10.85;;;17.90;51.90;;;;;;4843786;29;20217;-80
2021/03/27 00:10:33;;;;;;;18.02;11.40;;;17.80;51.80;;;;;;4843930;29;20645;-80
2021/03/27 00:13:16;;;;;;;17.80;11.07;;;17.80;51.80;;;;;;4844107;29;20166;-82
2021/03/27 00:16:14;;;;;;;17.52;11.20;;;17.80;51.90;;;;;;4847079;29;20185;-78
2021/03/27 00:18:48;;;;;;;18.38;10.88;;;17.80;52.20;;;;;;4865833;29;20650;-80
2021/03/27 00:21:18;;;;;;;17.60;10.98;;;17.80;51.90;;;;;;4865347;29;20200;-83
2021/03/27 00:24:07;;;;;;;17.08;10.57;;;17.80;52.30;;;;;;4863946;29;20279;-81
2021/03/27 00:27:19;;;;;;;17.58;11.32;;;17.80;52.30;;;;;;4865462;29;20283;-82
2021/03/27 00:29:47;;;;;;;17.90;11.10;;;17.80;52.30;;;;;;4988395;28;20176;-79
2021/03/27 00:32:18;;;;;;;17.77;11.20;;;17.80;52.50;;;;;;4979117;28;20211;-80
2021/03/27 00:34:46;;;;;;;18.23;10.65;;;17.80;52.20;;;;;;4979386;28;20519;-81
2021/03/27 00:37:14;;;;;;;16.75;11.20;;;17.80;52.60;;;;;;4963033;28;20168;-79
2021/03/27 00:39:46;;;;;;;16.95;10.95;;;17.80;52.30;;;;;;4981880;28;20202;-81
2021/03/27 00:42:30;;;;;;;17.00;10.55;;;17.80;52.70;;;;;;5036911;28;20193;-83
2021/03/27 00:45:11;;;;;;;17.65;11.23;;;17.80;52.40;;;;;;5036624;28;20161;-77
2021/03/27 00:47:39;;;;;;;18.67;11.38;;;17.80;52.70;;;;;;5002438;28;20169;-80
2021/03/27 00:50:10;;;;;;;14.93;10.55;;;17.70;52.80;;;;;;5018667;28;20158;-79
2021/03/27 00:52:39;;;;;;;15.95;10.65;;;17.70;52.80;;;;;;5036460;28;20158;-78
2021/03/27 00:55:13;;;;;;;17.92;10.80;;;17.70;52.80;;;;;;5002442;28;20151;-78
2021/03/27 00:57:44;;;;;;;16.92;11.65;;;17.70;52.90;;;;;;5001832;28;20224;-80
2021/03/27 01:00:20;;;;;;;15.93;10.55;;;17.70;52.80;;;;;;5002398;28;20161;-77
2021/03/27 01:02:51;;;;;;;16.30;11.40;;;17.70;52.60;;;;;;5018071;28;20193;-79
2021/03/27 01:05:20;;;;;;;18.35;11.50;;;17.70;52.40;;;;;;5003101;28;20159;-78
2021/03/27 01:07:46;;;;;;;16.67;11.05;;;17.80;52.80;;;;;;5002442;28;20162;-78
2021/03/27 01:10:24;;;;;;;16.98;10.98;;;17.70;52.80;;;;;;5002503;28;20182;-82
2021/03/27 01:12:50;;;;;;;16.73;10.73;;;17.70;52.70;;;;;;5019080;28;20235;-82
2021/03/27 01:15:36;;;;;;;16.05;10.73;;;17.70;52.70;;;;;;5001581;28;20653;-79
2021/03/27 01:18:05;;;;;;;18.98;11.27;;;17.70;52.60;;;;;;5002108;28;20151;-81
2021/03/27 01:20:36;;;;;;;17.13;10.65;;;17.70;52.40;;;;;;5001844;28;20151;-83
2021/03/27 01:23:02;;;;;;;18.30;11.52;;;17.70;52.60;;;;;;5002021;28;20214;-80
2021/03/27 01:25:30;;;;;;;15.80;11.15;;;17.70;52.60;;;;;;5002414;28;20167;-83
2021/03/27 01:28:22;;;;;;;16.75;10.68;;;17.70;52.50;;;;;;5018460;28;20237;-81
2021/03/27 01:31:01;;;;;;;17.58;10.68;;;17.70;52.40;;;;;;5003671;28;20250;-79
2021/03/27 01:33:27;;;;;;;16.42;11.18;;;17.70;52.50;;;;;;5036017;28;20159;-79
2021/03/27 01:36:11;;;;;;;17.52;11.18;;;17.70;52.50;;;;;;5039046;28;20561;-81
2021/03/27 01:38:56;;;;;;;18.08;11.13;;;17.70;52.80;;;;;;5021599;28;20147;-81
2021/03/27 01:41:41;;;;;;;16.70;11.15;;;17.70;52.70;;;;;;5004841;28;20167;-79
2021/03/27 01:44:20;;;;;;;16.13;10.57;;;17.70;52.80;;;;;;5038577;28;20187;-82
2021/03/27 01:46:52;;;;;;;15.07;10.77;;;17.70;52.60;;;;;;5021281;28;20254;-79
2021/03/27 01:50:00;;;;;;;17.80;11.02;;;17.70;52.80;;;;;;5021120;28;20186;-81
2021/03/27 01:52:40;;;;;;;16.77;10.90;;;17.70;52.40;;;;;;4977611;28;20184;-78
2021/03/27 01:55:27;;;;;;;18.33;11.40;;;17.70;52.60;;;;;;4977537;28;20259;-81
2021/03/27 01:58:07;;;;;;;15.85;10.75;;;17.70;52.60;;;;;;4977790;28;20188;-82
2021/03/27 02:00:37;;;;;;;18.95;11.32;;;17.60;52.60;;;;;;4961621;28;20172;-80
2021/03/27 02:03:22;;;;;;;16.17;10.55;;;17.70;52.60;;;;;;4961805;28;20220;-79
2021/03/27 02:05:54;;;;;;;15.20;10.45;;;17.70;52.60;;;;;;4977965;28;20260;-83
2021/03/27 02:08:38;;;;;;;16.95;11.38;;;17.70;52.60;;;;;;4962327;28;20529;-82
2021/03/27 02:11:14;;;;;;;15.13;10.32;;;17.60;52.60;;;;;;4977958;28;20211;-81
2021/03/27 02:14:02;;;;;;;16.10;11.27;;;17.60;52.60;;;;;;4961781;28;20165;-79
2021/03/27 02:16:28;;;;;;;18.58;10.70;;;17.70;52.70;;;;;;4961339;28;20223;-80
2021/03/27 02:19:18;;;;;;;17.33;11.00;;;17.60;52.60;;;;;;4977870;28;20173;-80
2021/03/27 02:21:51;;;;;;;17.55;11.20;;;17.60;52.60;;;;;;4977362;28;20165;-78
2021/03/27 02:24:53;;;;;;;15.82;10.80;;;17.60;52.50;;;;;;4977101;28;20270;-78
2021/03/27 02:27:20;;;;;;;15.13;10.18;;;17.60;52.60;;;;;;4976844;28;20165;-83
2021/03/27 02:30:01;;;;;;;16.98;11.40;;;17.60;52.60;;;;;;4995858;28;20183;-77
2021/03/27 02:32:42;;;;;;;17.15;11.35;;;17.60;52.50;;;;;;5017806;28;20160;-77
2021/03/27 02:35:50;;;;;;;17.23;11.13;;;17.60;52.50;;;;;;5002254;28;20622;-80
2021/03/27 02:38:26;;;;;;;17.08;11.00;;;17.60;52.60;;;;;;4976185;28;20188;-80
2021/03/27 02:41:30;;;;;;;16.50;11.10;;;17.60;52.70;;;;;;4960703;28;20641;-83
2021/03/27 02:43:59;;;;;;;17.67;11.32;;;17.60;52.60;;;;;;4919669;29;20229;-79
2021/03/27 02:46:51;;;;;;;18.98;11.43;;;17.60;52.70;;;;;;4918842;29;20185;-78
2021/03/27 02:49:40;;;;;;;16.15;10.45;;;17.60;52.70;;;;;;4919264;29;20712;-80
2021/03/27 02:52:35;;;;;;;16.33;11.05;;;17.60;52.50;;;;;;4920190;29;20169;-79
2021/03/27 02:55:09;;;;;;;16.55;10.65;;;17.60;52.50;;;;;;4919589;29;20215;-80
2021/03/27 02:58:09;;;;;;;16.98;11.57;;;17.60;52.60;;;;;;4919333;29;20210;-81
2021/03/27 03:00:37;;;;;;;18.85;10.98;;;17.60;52.70;;;;;;4919217;29;20689;-79
2021/03/27 03:03:28;;;;;;;17.10;11.10;;;17.60;52.80;;;;;;4918932;29;20203;-78
2021/03/27 03:06:02;;;;;;;16.08;10.93;;;17.60;52.70;;;;;;4918932;29;20214;-80
2021/03/27 03:08:36;;;;;;;17.38;11.07;;;17.60;52.60;;;;;;4919109;29;20174;-83
2021/03/27 03:11:13;;;;;;;16.20;11.05;;;17.60;52.60;;;;;;4919261;29;20156;-81
2021/03/27 03:13:49;;;;;;;17.45;10.90;;;17.60;52.50;;;;;;4919149;29;20205;-78
2021/03/27 03:16:35;;;;;;;18.27;11.50;;;17.60;52.40;;;;;;4903249;29;20199;-79
2021/03/27 03:19:14;;;;;;;16.27;11.23;;;17.60;52.60;;;;;;4938035;28;20198;-83
2021/03/27 03:21:56;;;;;;;16.80;11.25;;;17.60;52.40;;;;;;5018836;28;20163;-80
2021/03/27 03:24:31;;;;;;;17.67;11.20;;;17.60;52.50;;;;;;5001042;28;20178;-79
2021/03/27 03:27:20;;;;;;;18.45;11.15;;;17.60;52.40;;;;;;5000812;28;20210;-79
2021/03/27 03:30:06;;;;;;;14.13;10.45;;;17.60;52.60;;;;;;5036805;28;20182;-79
2021/03/27 03:32:55;;;;;;;16.92;10.63;;;17.60;52.60;;;;;;5036956;28;20159;-79
2021/03/27 03:36:03;;;;;;;14.68;10.02;;;17.60;52.40;;;;;;5019380;28;20151;-82
2021/03/27 03:38:48;;;;;;;17.05;10.68;;;17.60;52.50;;;;;;5016823;28;20159;-79
2021/03/27 03:41:29;;;;;;;18.48;11.30;;;17.60;52.50;;;;;;5037434;28;20159;-77
2021/03/27 03:44:07;;;;;;;18.20;11.40;;;17.60;52.70;;;;;;5019449;28;20191;-79
2021/03/27 03:47:01;;;;;;;16.50;10.75;;;17.60;52.50;;;;;;5036648;28;20170;-81
2021/03/27 03:49:53;;;;;;;17.05;10.77;;;17.60;53.30;;;;;;5018883;28;20294;-79
2021/03/27 03:52:24;;;;;;;15.98;10.07;;;17.60;52.50;;;;;;5019139;28;20159;-78
2021/03/27 03:54:58;;;;;;;15.55;10.50;;;17.60;52.40;;;;;;5036885;28;20618;-80
2021/03/27 03:57:50;;;;;;;17.95;10.85;;;17.50;52.60;;;;;;5036112;28;20249;-80
2021/03/27 04:00:43;;;;;;;15.30;10.23;;;17.60;52.60;;;;;;5036644;28;20151;-81
2021/03/27 04:03:14;;;;;;;17.75;11.35;;;17.50;53.30;;;;;;5035991;28;20554;-78
2021/03/27 04:05:57;;;;;;;16.77;11.15;;;17.50;52.60;;;;;;5018861;28;20166;-78
2021/03/27 04:08:26;;;;;;;17.75;11.30;;;17.50;52.60;;;;;;5036048;28;20618;-78
2021/03/27 04:11:00;;;;;;;16.33;10.43;;;17.50;53.20;;;;;;5018855;28;20155;-82
2021/03/27 04:13:39;;;;;;;16.65;11.02;;;17.50;52.60;;;;;;5002504;28;20159;-79
2021/03/27 04:16:10;;;;;;;17.63;10.88;;;17.50;52.60;;;;;;5018859;28;20154;-79
2021/03/27 04:18:42;;;;;;;18.13;11.35;;;17.50;52.70;;;;;;5002818;28;20162;-79
2021/03/27 04:21:49;;;;;;;17.00;11.00;;;17.50;52.40;;;;;;5001654;28;20249;-79
2021/03/27 04:24:22;;;;;;;16.95;10.75;;;17.50;52.50;;;;;;4981629;28;20223;-80
2021/03/27 04:26:53;;;;;;;19.05;11.68;;;17.50;52.50;;;;;;4978456;28;20723;-78
2021/03/27 04:29:25;;;;;;;17.48;10.70;;;17.50;52.70;;;;;;4994441;28;20579;-81
2021/03/27 04:32:13;;;;;;;16.63;10.70;;;17.50;52.50;;;;;;4994740;28;20172;-80
2021/03/27 04:34:45;;;;;;;16.98;10.95;;;17.50;53.20;;;;;;4979017;28;20188;-79
2021/03/27 04:37:27;;;;;;;17.38;10.80;;;17.50;52.50;;;;;;4978371;28;20169;-80
2021/03/27 04:40:16;;;;;;;16.52;10.73;;;17.50;52.50;;;;;;4962108;28;20255;-83
2021/03/27 04:42:53;;;;;;;16.83;11.15;;;17.50;52.40;;;;;;4980315;28;20634;-78
2021/03/27 04:45:25;;;;;;;14.85;10.35;;;17.50;52.40;;;;;;4978919;28;20203;-82
2021/03/27 04:48:23;;;;;;;15.80;10.20;;;17.50;52.50;;;;;;4978877;28;20176;-79
2021/03/27 04:51:15;;;;;;;16.80;10.82;;;17.50;52.50;;;;;;4961953;28;20184;-80
2021/03/27 04:54:03;;;;;;;17.50;11.00;;;17.50;52.60;;;;;;4937255;29;20619;-80
2021/03/27 04:56:52;;;;;;;16.02;10.77;;;17.50;52.40;;;;;;4900980;29;20190;-80
2021/03/27 04:59:56;;;;;;;17.35;11.18;;;17.50;52.40;;;;;;4885169;29;20227;-79
2021/03/27 05:03:10;;;;;;;18.85;11.25;;;17.50;52.50;;;;;;4919419;29;20261;-79
2021/03/27 05:05:58;;;;;;;17.33;11.13;;;17.50;52.60;;;;;;4848017;29;20586;-79
2021/03/27 05:08:32;;;;;;;15.38;10.77;;;17.50;52.50;;;;;;4848498;29;20248;-80
2021/03/27 05:11:24;;;;;;;16.55;10.70;;;17.50;52.50;;;;;;4866963;29;20188;-82
2021/03/27 05:14:02;;;;;;;17.08;11.00;;;17.50;52.40;;;;;;4853351;29;20191;-77
2021/03/27 05:16:33;;;;;;;18.27;10.73;;;17.50;52.40;;;;;;4851718;29;20625;-80
2021/03/27 05:19:24;;;;;;;16.35;10.90;;;17.50;52.50;;;;;;4852397;29;20184;-82
2021/03/27 05:21:56;;;;;;;15.85;10.35;;;17.50;52.40;;;;;;4853769;29;20192;-80
2021/03/27 05:24:40;;;;;;;15.23;10.32;;;17.50;52.60;;;;;;4833157;29;20209;-79
2021/03/27 05:27:32;;;;;;;15.75;10.50;;;17.50;52.40;;;;;;4848603;29;20177;-79
2021/03/27 05:30:02;;;;;;;17.35;10.95;;;17.50;52.40;;;;;;4850218;29;20200;-82
2021/03/27 05:32:28;;;;;;;17.75;10.90;;;17.50;52.50;;;;;;4862072;29;20179;-82
2021/03/27 05:34:54;;;;;;;15.70;10.23;;;17.50;52.30;;;;;;4937720;29;20253;-78
2021/03/27 05:37:41;;;;;;;16.35;11.00;;;17.50;52.40;;;;;;5001085;28;20213;-80
2021/03/27 05:40:25;;;;;;;14.55;10.05;;;17.50;52.60;;;;;;5002872;28;20545;-80
2021/03/27 05:43:17;;;;;;;17.08;10.82;;;17.50;52.40;;;;;;5020491;28;20194;-80
2021/03/27 05:45:49;;;;;;;16.10;10.90;;;17.50;52.40;;;;;;4986569;28;20171;-79
2021/03/27 05:48:30;;;;;;;18.58;9.93;;;17.50;52.40;;;;;;5020223;28;20156;-81
2021/03/27 05:51:15;;;;;;;16.60;10.95;;;17.50;52.30;;;;;;4986232;28;20531;-78
2021/03/27 05:53:48;;;;;;;16.92;10.68;;;17.50;52.50;;;;;;5020446;28;20155;-82
2021/03/27 05:56:51;;;;;;;16.05;10.70;;;17.50;52.40;;;;;;5020401;28;20163;-80
2021/03/27 05:59:54;;;;;;;18.00;10.68;;;17.50;52.20;;;;;;5021544;28;20164;-80
2021/03/27 06:02:20;;;;;;;16.17;11.20;;;17.50;52.20;;;;;;5021994;28;20209;-80
2021/03/27 06:05:10;;;;;;;16.67;10.10;;;17.50;52.30;;;;;;5021444;28;20634;-79
2021/03/27 06:07:57;;;;;;;16.13;10.18;;;17.50;52.20;;;;;;5021966;28;20698;-81
2021/03/27 06:10:44;;;;;;;15.05;9.80;;;17.50;52.20;;;;;;5022277;28;20582;-79
2021/03/27 06:13:19;;;;;;;17.42;10.73;;;17.50;52.30;;;;;;5021860;28;20209;-79
2021/03/27 06:16:07;;;;;;;17.67;10.82;;;17.50;52.30;;;;;;5004006;28;20488;-78
2021/03/27 06:19:01;;;;;;;14.93;10.32;;;17.50;52.30;;;;;;5021905;28;20231;-79
2021/03/27 06:21:46;;;;;;;15.18;9.98;;;17.50;52.20;;;;;;5021568;28;20238;-78
2021/03/27 06:24:57;;;;;;;15.35;10.00;;;17.50;52.30;;;;;;5021164;28;20234;-78
2021/03/27 06:27:47;;;;;;;15.10;9.90;;;17.50;52.30;;;;;;4980271;28;20188;-78
2021/03/27 06:30:37;;;;;;;15.88;10.30;;;17.50;52.30;;;;;;4980825;28;20164;-79
2021/03/27 06:33:19;;;;;;;16.30;10.38;;;17.50;52.10;;;;;;4975265;28;20188;-78
2021/03/27 06:35:51;;;;;;;16.73;10.45;;;17.50;52.30;;;;;;4980801;28;20200;-80
2021/03/27 06:38:29;;;;;;;16.95;10.45;;;17.50;52.30;;;;;;4980112;28;20188;-78
2021/03/27 06:41:27;;;;;;;16.80;10.85;;;17.50;52.20;;;;;;4979959;28;20220;-79
2021/03/27 06:44:13;;;;;;;15.93;10.50;;;17.50;52.10;;;;;;4979423;28;20682;-82
2021/03/27 06:46:52;;;;;;;15.85;10.68;;;17.50;52.00;;;;;;4979515;28;20244;-80
2021/03/27 06:49:58;;;;;;;19.52;11.10;;;17.50;51.90;;;;;;4977769;28;20164;-81
2021/03/27 06:52:37;;;;;;;15.43;10.20;;;17.50;51.90;;;;;;4976677;28;20204;-81
2021/03/27 06:55:27;;;;;;;17.08;11.02;;;17.50;52.00;;;;;;4977171;28;20168;-80
2021/03/27 06:58:26;;;;;;;15.98;11.07;;;17.50;52.00;;;;;;4976585;28;20181;-80
2021/03/27 07:01:48;;;;;;;15.88;10.30;;;17.50;52.00;;;;;;4976887;28;20169;-80
2021/03/27 07:04:14;;;;;;;14.43;9.68;;;17.50;52.00;;;;;;4932159;29;20260;-80
2021/03/27 07:07:01;;;;;;;15.00;9.38;;;17.50;52.10;;;;;;4957011;29;20186;-82
2021/03/27 07:09:44;;;;;;;15.40;10.25;;;17.50;51.90;;;;;;4956829;29;20228;-80
2021/03/27 07:12:22;;;;;;;14.93;10.07;;;17.50;52.00;;;;;;4958569;29;20182;-79
2021/03/27 07:15:12;;;;;;;15.70;10.20;;;17.50;52.00;;;;;;4944451;29;20254;-82
2021/03/27 07:18:13;;;;;;;16.23;10.23;;;17.50;52.00;;;;;;4960425;29;20221;-79
2021/03/27 07:21:07;;;;;;;16.38;10.55;;;17.50;52.10;;;;;;4959437;29;20164;-79
2021/03/27 07:23:48;;;;;;;15.95;10.20;;;17.50;52.70;;;;;;4958692;29;20233;-82
2021/03/27 07:26:41;;;;;;;15.07;9.75;;;17.50;51.90;;;;;;4942179;29;20219;-82
2021/03/27 07:29:38;;;;;;;13.75;9.02;;;17.60;51.80;;;;;;4957828;29;20174;-83
2021/03/27 07:32:34;;;;;;;15.52;10.32;;;17.50;52.00;;;;;;4957745;28;20185;-80
2021/03/27 07:35:28;;;;;;;15.60;10.50;;;17.50;52.10;;;;;;4958340;29;20162;-79
2021/03/27 07:38:30;;;;;;;17.50;10.88;;;17.50;52.10;;;;;;4977463;28;20244;-78
2021/03/27 07:41:28;;;;;;;15.57;10.20;;;17.50;51.90;;;;;;5024056;28;20629;-80
2021/03/27 07:43:54;;;;;;;15.98;10.02;;;17.60;51.80;;;;;;5023398;28;20213;-80
2021/03/27 07:46:57;;;;;;;16.90;10.38;;;17.60;51.90;;;;;;5020520;28;20183;-82
2021/03/27 07:49:56;;;;;;;16.77;10.40;;;17.60;51.90;;;;;;5041171;28;20170;-80
2021/03/27 07:52:56;;;;;;;14.95;9.88;;;17.60;51.90;;;;;;5005121;28;20637;-81
2021/03/27 07:55:34;;;;;;;19.15;10.70;;;17.50;51.90;;;;;;5022306;28;20189;-80
2021/03/27 07:58:24;;;;;;;17.70;10.27;;;17.50;51.90;;;;;;5035851;28;20161;-79
2021/03/27 08:01:15;;;;;;;17.13;10.60;;;17.60;51.80;;;;;;5034722;28;20155;-80
2021/03/27 08:04:12;;;;;;;18.83;10.70;;;17.60;52.00;;;;;;5033926;28;20202;-79
2021/03/27 08:06:57;;;;;;;16.17;10.07;;;17.60;51.80;;;;;;5033855;28;20166;-78
2021/03/27 08:09:50;;;;;;;18.50;10.82;;;17.70;52.00;;;;;;5001633;28;20166;-80
2021/03/27 08:12:38;;;;;;;16.33;10.27;;;17.70;52.00;;;;;;5033835;28;20158;-83
2021/03/27 08:15:04;;;;;;;18.20;9.85;;;17.80;51.60;;;;;;5034258;28;20197;-79
2021/03/27 08:17:57;;;;;;;15.80;10.27;;;17.80;51.80;;;;;;5034310;28;20591;-83
2021/03/27 08:20:51;;;;;;;18.67;10.60;;;17.80;51.50;;;;;;5034285;28;20239;-80
2021/03/27 08:23:23;;;;;;;17.63;9.82;;;17.90;51.50;;;;;;5037093;28;20233;-78
2021/03/27 08:26:00;;;;;;;26.35;10.88;;;17.90;51.40;;;;;;5037247;28;20159;-78
2021/03/27 08:28:45;;;;;;;19.75;10.48;;;17.90;51.50;;;;;;5038288;28;20151;-78
2021/03/27 08:31:30;;;;;;;19.25;10.10;;;17.90;51.50;;;;;;5038536;28;20147;-77
2021/03/27 08:34:22;;;;;;;21.35;10.70;;;17.90;51.30;;;;;;5039371;28;20208;-82
2021/03/27 08:37:10;;;;;;;17.98;9.98;;;17.90;51.40;;;;;;5040573;28;20167;-78
2021/03/27 08:40:14;;;;;;;21.30;10.75;;;17.90;51.30;;;;;;5039950;28;20178;-78
2021/03/27 08:43:04;;;;;;;17.55;9.52;;;17.90;51.30;;;;;;5040671;28;20241;-80
2021/03/27 08:45:58;;;;;;;24.77;10.73;;;18.00;51.30;;;;;;5040732;28;20163;-79
2021/03/27 08:48:45;;;;;;;21.33;10.23;;;18.00;51.20;;;;;;5040491;28;20163;-78
2021/03/27 08:51:34;;;;;;;29.40;11.10;;;18.00;51.30;;;;;;5021358;28;20182;-80
2021/03/27 08:54:14;;;;;;;22.13;10.88;;;18.10;51.30;;;;;;5037895;28;20173;-84
2021/03/27 08:57:10;;;;;;;35.80;11.40;;;18.10;51.10;;;;;;5019264;28;20163;-80
2021/03/27 08:59:39;;;;;;;26.25;10.93;;;18.10;51.30;;;;;;4975414;28;20216;-80
2021/03/27 09:02:21;;;;;;;29.60;10.48;;;18.00;51.30;;;;;;4975579;28;20704;-80
2021/03/27 09:05:26;;;;;;;24.33;10.15;;;18.00;51.40;;;;;;4976463;28;20195;-80
2021/03/27 09:08:12;;;;;;;31.70;11.20;;;18.10;51.10;;;;;;4972608;28;20228;-79
2021/03/27 09:10:50;;;;;;;22.00;10.45;;;18.10;51.00;;;;;;4958401;28;20321;-81
2021/03/27 09:13:45;;;;;;;36.65;10.55;;;18.10;51.00;;;;;;4975317;28;20168;-82
2021/03/27 09:16:37;;;;;;;29.58;10.57;;;18.10;51.20;;;;;;4974774;28;20556;-80
2021/03/27 09:19:41;;;;;;;20.73;10.35;;;18.10;51.20;;;;;;4975844;28;20168;-80
2021/03/27 09:22:34;;;;;;;23.00;11.27;;;18.20;51.40;;;;;;4935829;29;20174;-82
2021/03/27 09:25:00;;;;;;;34.47;11.23;;;18.20;51.00;;;;;;4937219;29;20243;-83
2021/03/27 09:28:07;;;;;;;25.38;10.38;;;18.20;51.00;;;;;;4938733;29;20665;-82
2021/03/27 09:30:33;;;;;;;24.92;11.05;;;18.30;50.80;;;;;;4938926;29;20606;-83
2021/03/27 09:33:32;;;;;;;33.33;11.18;;;18.30;50.80;;;;;;4937199;29;20221;-80
2021/03/27 09:36:10;;;;;;;26.23;11.25;;;18.30;51.10;;;;;;4937971;29;20202;-81
2021/03/27 09:39:10;;;;;;;30.52;10.70;;;18.30;50.90;;;;;;4938833;29;20174;-80
2021/03/27 09:41:58;;;;;;;24.50;10.70;;;18.40;50.70;;;;;;4941882;29;20654;-78
2021/03/27 09:44:53;;;;;;;29.88;10.55;;;18.40;50.80;;;;;;4940377;29;20679;-79
2021/03/27 09:48:08;;;;;;;23.33;11.07;;;18.30;50.80;;;;;;4932693;29;20194;-78
2021/03/27 09:51:15;;;;;;;31.35;11.25;;;18.40;51.40;;;;;;4939556;29;20162;-79
2021/03/27 09:54:42;;;;;;;27.35;10.43;;;18.30;51.10;;;;;;5005893;28;20178;-79
2021/03/27 09:57:45;;;;;;;30.70;10.77;;;18.40;51.00;;;;;;5041837;28;20222;-78
2021/03/27 10:00:41;;;;;;;37.40;10.48;;;18.40;51.00;;;;;;5043052;28;20174;-78
2021/03/27 10:03:09;;;;;;;31.75;10.25;;;18.40;51.40;;;;;;5042537;28;20183;-79
2021/03/27 10:05:54;;;;;;;31.55;10.82;;;18.40;51.30;;;;;;5042752;28;20622;-79
2021/03/27 10:08:59;;;;;;;40.83;10.57;;;18.30;51.30;;;;;;5024310;28;20289;-79
2021/03/27 10:11:49;;;;;;;32.42;10.35;;;18.40;51.10;;;;;;5040685;28;20162;-78
2021/03/27 10:14:47;;;;;;;32.95;11.23;;;18.40;50.90;;;;;;5006564;28;20179;-80
2021/03/27 10:17:16;;;;;;;34.15;11.13;;;18.40;51.10;;;;;;5027248;28;20213;-80
2021/03/27 10:20:14;;;;;;;28.60;10.10;;;18.40;50.90;;;;;;5040569;28;20614;-81
2021/03/27 10:22:40;;;;;;;27.42;9.85;;;18.40;51.40;;;;;;5018785;28;20215;-78
2021/03/27 10:25:33;;;;;;;28.73;10.25;;;18.30;51.20;;;;;;5020015;28;20260;-79
2021/03/27 10:28:24;;;;;;;27.52;10.38;;;18.40;51.00;;;;;;5021278;28;20182;-79
2021/03/27 10:30:58;;;;;;;25.20;10.30;;;18.40;50.80;;;;;;5021196;28;20163;-80
2021/03/27 10:33:41;;;;;;;26.58;10.15;;;18.40;50.80;;;;;;5021090;28;20217;-81
2021/03/27 10:36:36;;;;;;;19.10;10.38;;;18.50;50.80;;;;;;5021332;28;20155;-79
2021/03/27 10:39:46;;;;;;;31.25;11.18;;;18.40;51.10;;;;;;5038788;28;20179;-80
2021/03/27 10:43:00;;;;;;;24.40;10.30;;;18.40;51.10;;;;;;5037666;28;20237;-80
2021/03/27 10:45:55;;;;;;;35.90;10.98;;;18.40;51.00;;;;;;5022178;28;20190;-81
2021/03/27 10:49:04;;;;;;;38.40;10.57;;;18.40;51.00;;;;;;5025280;28;20169;-80
2021/03/27 10:51:38;;;;;;;31.40;10.30;;;18.40;51.30;;;;;;5033784;28;20195;-80
2021/03/27 10:54:17;;;;;;;37.05;11.02;;;18.40;51.30;;;;;;5024725;28;20171;-80
2021/03/27 10:56:55;;;;;;;27.08;10.82;;;18.30;51.50;;;;;;5025748;28;20151;-83
2021/03/27 10:59:35;;;;;;;33.85;10.85;;;18.40;51.50;;;;;;5043344;28;20168;-79
2021/03/27 11:02:22;;;;;;;26.63;10.60;;;18.40;51.40;;;;;;5025914;28;20175;-82
2021/03/27 11:05:11;;;;;;;36.53;11.07;;;18.50;51.20;;;;;;5040955;28;20185;-79
2021/03/27 11:08:09;;;;;;;27.67;10.77;;;18.50;50.90;;;;;;5042032;28;20151;-79
2021/03/27 11:11:01;;;;;;;29.00;10.35;;;18.50;51.00;;;;;;5043253;28;20676;-81
2021/03/27 11:13:51;;;;;;;29.85;10.55;;;18.50;50.80;;;;;;5043117;28;20162;-79
2021/03/27 11:17:05;;;;;;;32.92;11.55;;;18.50;51.10;;;;;;5043151;28;20162;-80
2021/03/27 11:19:49;;;;;;;25.90;10.65;;;18.40;51.00;;;;;;5041775;28;20154;-82
2021/03/27 11:22:47;;;;;;;30.20;10.70;;;18.40;51.20;;;;;;5042657;28;20584;-81
2021/03/27 11:25:40;;;;;;;29.48;10.68;;;18.50;51.20;;;;;;5042091;28;20217;-79
2021/03/27 11:28:30;;;;;;;21.02;11.05;;;18.50;51.10;;;;;;5024492;28;20170;-79
2021/03/27 11:31:25;;;;;;;25.75;10.02;;;18.50;51.10;;;;;;5023438;28;20257;-81
2021/03/27 11:34:02;;;;;;;30.52;10.82;;;18.50;51.20;;;;;;5042651;28;20166;-83
2021/03/27 11:37:05;;;;;;;31.90;10.38;;;18.50;51.20;;;;;;5024804;28;20159;-80
2021/03/27 11:40:11;;;;;;;29.17;10.60;;;18.50;51.60;;;;;;5043333;28;20159;-82
2021/03/27 11:42:52;;;;;;;26.77;10.55;;;18.40;51.60;;;;;;5023303;28;20201;-79
2021/03/27 11:45:42;;;;;;;35.90;11.20;;;18.40;51.50;;;;;;5024962;28;20609;-80
2021/03/27 11:48:25;;;;;;;24.48;10.82;;;18.40;51.50;;;;;;5042876;28;20151;-79
2021/03/27 11:51:18;;;;;;;24.00;10.18;;;18.50;51.10;;;;;;5043825;28;20159;-81
2021/03/27 11:54:08;;;;;;;28.65;10.23;;;18.50;51.50;;;;;;5045119;28;20218;-80
2021/03/27 11:56:38;;;;;;;25.67;9.93;;;18.60;50.90;;;;;;5044213;28;20205;-79
2021/03/27 12:02:55;;;;;;;28.17;11.02;;;18.50;51.30;;;;;;5039150;28;20282;-79
2021/03/27 12:05:27;;;;;;;24.90;10.52;;;18.50;51.40;;;;;;5023186;28;20221;-79
2021/03/27 12:08:14;;;;;;;22.00;11.32;;;18.50;51.60;;;;;;5041738;28;20155;-78
2021/03/27 12:11:08;;;;;;;24.42;10.90;;;18.50;51.50;;;;;;5040851;28;20165;-79
2021/03/27 12:14:06;;;;;;;32.53;10.20;;;18.50;51.60;;;;;;5040265;28;20551;-81
2021/03/27 12:16:59;;;;;;;31.70;10.82;;;18.50;51.70;;;;;;5040474;28;20200;-81
2021/03/27 12:19:49;;;;;;;22.85;9.93;;;18.50;51.60;;;;;;4979786;28;20278;-79
2021/03/27 12:22:41;;;;;;;28.17;10.35;;;18.50;51.60;;;;;;4978637;28;20267;-81
2021/03/27 12:25:38;;;;;;;29.08;10.85;;;18.50;51.90;;;;;;4961235;28;20559;-79
2021/03/27 12:28:25;;;;;;;23.73;10.02;;;18.50;52.00;;;;;;4963633;28;20803;-82
2021/03/27 12:31:20;;;;;;;20.83;10.10;;;18.40;52.00;;;;;;4979096;28;20199;-80
2021/03/27 12:34:17;;;;;;;23.42;10.48;;;18.40;51.90;;;;;;4962476;28;20184;-79
2021/03/27 12:37:02;;;;;;;24.25;10.40;;;18.40;51.90;;;;;;4980197;28;20196;-79
2021/03/27 12:39:51;;;;;;;27.48;10.18;;;18.50;51.70;;;;;;4979049;28;20184;-80
2021/03/27 12:42:40;;;;;;;23.58;10.57;;;18.50;51.70;;;;;;4969273;28;20188;-81
2021/03/27 12:45:29;;;;;;;27.30;10.43;;;18.50;51.90;;;;;;4974706;28;20172;-81
2021/03/27 12:48:15;;;;;;;25.63;11.00;;;18.50;51.80;;;;;;4974476;28;20699;-82
2021/03/27 12:51:05;;;;;;;25.73;11.52;;;18.50;51.90;;;;;;4959290;28;20427;-81
2021/03/27 12:53:39;;;;;;;24.77;10.60;;;18.60;51.70;;;;;;4962235;28;20192;-80
2021/03/27 12:56:29;;;;;;;29.42;10.57;;;18.60;52.30;;;;;;4982142;28;20178;-78
2021/03/27 12:59:01;;;;;;;23.63;10.82;;;18.70;51.60;;;;;;5039098;28;20158;-79
2021/03/27 13:01:41;;;;;;;26.65;10.63;;;18.70;51.60;;;;;;5006214;28;20174;-81
2021/03/27 13:04:26;;;;;;;27.33;10.35;;;18.70;51.60;;;;;;5018240;28;20190;-80
2021/03/27 13:06:57;;;;;;;19.08;10.40;;;18.60;51.70;;;;;;5035051;28;20202;-81
2021/03/27 13:09:23;;;;;;;35.92;11.13;;;18.60;51.70;;;;;;5016993;28;20270;-79
2021/03/27 13:11:52;;;;;;;30.20;11.18;;;18.60;52.00;;;;;;5019521;28;20175;-80
2021/03/27 13:14:39;;;;;;;27.08;12.00;;;18.50;51.80;;;;;;5018413;28;20606;-81
2021/03/27 13:17:25;;;;;;;21.90;10.70;;;18.60;51.90;;;;;;5035452;28;20150;-79
2021/03/27 13:19:56;;;;;;;33.15;11.63;;;18.60;51.80;;;;;;5034722;28;20155;-81
2021/03/27 13:22:53;;;;;;;25.33;10.82;;;18.60;52.00;;;;;;5002373;28;20214;-81
2021/03/27 13:25:32;;;;;;;35.17;11.25;;;18.60;52.50;;;;;;4982513;28;20245;-79
2021/03/27 13:28:12;;;;;;;26.02;11.73;;;18.70;52.50;;;;;;4977697;28;20255;-80
2021/03/27 13:31:19;;;;;;;26.13;11.25;;;18.70;52.00;;;;;;4996621;28;20203;-80
2021/03/27 13:33:54;;;;;;;27.05;11.73;;;18.70;51.70;;;;;;5000456;28;20168;-85
2021/03/27 13:36:28;;;;;;;26.13;11.45;;;18.70;51.80;;;;;;4983512;28;20187;-82
2021/03/27 13:38:56;;;;;;;29.92;11.15;;;18.70;51.80;;;;;;4997274;28;20171;-80
2021/03/27 13:41:37;;;;;;;37.53;11.63;;;18.70;51.90;;;;;;4982404;28;20558;-80
2021/03/27 13:44:50;;;;;;;26.80;12.02;;;18.80;51.70;;;;;;4997943;28;20283;-80
2021/03/27 13:48:08;;;;;;;26.38;11.35;;;18.80;51.70;;;;;;4938905;29;20198;-79
2021/03/27 13:50:43;;;;;;;21.48;11.18;;;18.70;51.90;;;;;;4884610;29;20190;-82
2021/03/27 13:53:26;;;;;;;26.27;11.60;;;18.70;52.00;;;;;;4886076;29;20544;-78
2021/03/27 13:56:12;;;;;;;26.42;11.32;;;18.70;51.90;;;;;;4887148;29;20225;-81
2021/03/27 13:59:01;;;;;;;29.88;11.77;;;18.80;51.90;;;;;;4884452;29;20670;-82
2021/03/27 14:01:38;;;;;;;25.13;11.48;;;18.80;51.80;;;;;;4905254;29;20186;-82